sensor_id;sensor_type;location;lat;lon;timestamp;temperature;humidity
5508;DHT22;2776;51.046;6.772;2022-12-18T00:00:09;-4.40;99.90
5508;DHT22;2776;51.046;6.772;2022-12-18T00:02:36;-4.40;99.90
5508;DHT22;2776;51.046;6.772;2022-12-18T00:05:03;-4.40;99.90
5508;DHT22;2776;51.046;6.772;2022-12-18T00:07:29;-4.40;99.90
5508;DHT22;2776;51.046;6.772;2022-12-18T00:09:56;-4.50;99.90
5508;DHT22;2776;51.046;6.772;2022-12-18T00:12:23;-4.40;99.90
5508;DHT22;2776;51.046;6.772;2022-12-18T00:14:49;-4.50;99.90
5508;DHT22;2776;51.046;6.772;2022-12-18T00:17:17;-4.40;99.90
5508;DHT22;2776;51.046;6.772;2022-12-18T00:19:44;-4.50;99.90
5508;DHT22;2776;51.046;6.772;2022-12-18T00:22:11;-4.50;99.90
5508;DHT22;2776;51.046;6.772;2022-12-18T00:24:38;-4.50;99.90
5508;DHT22;2776;51.046;6.772;2022-12-18T00:27:04;-4.50;99.90
5508;DHT22;2776;51.046;6.772;2022-12-18T00:29:31;-4.50;99.90
5508;DHT22;2776;51.046;6.772;2022-12-18T00:31:58;-4.50;99.90
5508;DHT22;2776;51.046;6.772;2022-12-18T00:34:26;-4.50;99.90
5508;DHT22;2776;51.046;6.772;2022-12-18T00:36:53;-4.50;99.90
5508;DHT22;2776;51.046;6.772;2022-12-18T00:39:19;-4.50;99.90
5508;DHT22;2776;51.046;6.772;2022-12-18T00:41:46;-4.50;99.90
5508;DHT22;2776;51.046;6.772;2022-12-18T00:44:30;-4.50;99.90
5508;DHT22;2776;51.046;6.772;2022-12-18T00:46:57;-4.60;99.90
5508;DHT22;2776;51.046;6.772;2022-12-18T00:49:25;-4.60;99.90
5508;DHT22;2776;51.046;6.772;2022-12-18T00:51:52;-4.60;99.90
5508;DHT22;2776;51.046;6.772;2022-12-18T00:54:21;-4.50;99.90
5508;DHT22;2776;51.046;6.772;2022-12-18T00:56:48;-4.60;99.90
5508;DHT22;2776;51.046;6.772;2022-12-18T00:59:15;-4.60;99.90
5508;DHT22;2776;51.046;6.772;2022-12-18T01:01:42;-4.60;99.90
5508;DHT22;2776;51.046;6.772;2022-12-18T01:04:09;-4.70;99.90
5508;DHT22;2776;51.046;6.772;2022-12-18T01:06:37;-4.70;99.90
5508;DHT22;2776;51.046;6.772;2022-12-18T01:09:03;-4.70;99.90
5508;DHT22;2776;51.046;6.772;2022-12-18T01:11:30;-4.70;99.90
5508;DHT22;2776;51.046;6.772;2022-12-18T01:13:57;-4.70;99.90
5508;DHT22;2776;51.046;6.772;2022-12-18T01:16:27;-4.80;99.90
5508;DHT22;2776;51.046;6.772;2022-12-18T01:18:54;-4.70;99.90
5508;DHT22;2776;51.046;6.772;2022-12-18T01:21:22;-4.70;99.90
5508;DHT22;2776;51.046;6.772;2022-12-18T01:23:54;-4.70;99.90
5508;DHT22;2776;51.046;6.772;2022-12-18T01:26:22;-4.70;99.90
5508;DHT22;2776;51.046;6.772;2022-12-18T01:28:49;-4.70;99.90
5508;DHT22;2776;51.046;6.772;2022-12-18T01:31:18;-4.70;99.90
5508;DHT22;2776;51.046;6.772;2022-12-18T01:33:45;-4.70;99.90
5508;DHT22;2776;51.046;6.772;2022-12-18T01:36:16;-4.80;99.90
5508;DHT22;2776;51.046;6.772;2022-12-18T01:38:43;-4.80;99.90
5508;DHT22;2776;51.046;6.772;2022-12-18T01:41:12;-4.80;99.90
5508;DHT22;2776;51.046;6.772;2022-12-18T01:43:48;-4.80;99.90
5508;DHT22;2776;51.046;6.772;2022-12-18T01:46:16;-4.80;99.90
5508;DHT22;2776;51.046;6.772;2022-12-18T01:48:44;-4.70;99.90
5508;DHT22;2776;51.046;6.772;2022-12-18T01:51:11;-4.80;99.90
5508;DHT22;2776;51.046;6.772;2022-12-18T01:53:40;-4.70;99.90
5508;DHT22;2776;51.046;6.772;2022-12-18T01:56:08;-4.70;99.90
5508;DHT22;2776;51.046;6.772;2022-12-18T01:58:41;-4.70;99.90
5508;DHT22;2776;51.046;6.772;2022-12-18T02:01:11;-4.70;99.90
5508;DHT22;2776;51.046;6.772;2022-12-18T02:03:41;-4.70;99.90
5508;DHT22;2776;51.046;6.772;2022-12-18T02:06:13;-4.70;99.90
5508;DHT22;2776;51.046;6.772;2022-12-18T02:08:48;-4.60;99.90
5508;DHT22;2776;51.046;6.772;2022-12-18T02:11:20;-4.60;99.90
5508;DHT22;2776;51.046;6.772;2022-12-18T02:13:59;-4.60;99.90
5508;DHT22;2776;51.046;6.772;2022-12-18T02:16:35;-4.60;99.90
5508;DHT22;2776;51.046;6.772;2022-12-18T02:19:09;-4.60;99.90
5508;DHT22;2776;51.046;6.772;2022-12-18T02:21:45;-4.60;99.90
5508;DHT22;2776;51.046;6.772;2022-12-18T02:24:26;-4.60;99.90
5508;DHT22;2776;51.046;6.772;2022-12-18T02:26:58;-4.60;99.90
5508;DHT22;2776;51.046;6.772;2022-12-18T02:29:29;-4.50;99.90
5508;DHT22;2776;51.046;6.772;2022-12-18T02:31:58;-4.50;99.90
5508;DHT22;2776;51.046;6.772;2022-12-18T02:34:31;-4.60;99.90
5508;DHT22;2776;51.046;6.772;2022-12-18T02:37:02;-4.60;99.90
5508;DHT22;2776;51.046;6.772;2022-12-18T02:39:31;-4.60;99.90
5508;DHT22;2776;51.046;6.772;2022-12-18T02:42:00;-4.60;99.90
5508;DHT22;2776;51.046;6.772;2022-12-18T02:44:33;-4.60;99.90
5508;DHT22;2776;51.046;6.772;2022-12-18T02:47:00;-4.50;99.90
5508;DHT22;2776;51.046;6.772;2022-12-18T02:49:33;-4.50;99.90
5508;DHT22;2776;51.046;6.772;2022-12-18T02:52:06;-4.60;99.90
5508;DHT22;2776;51.046;6.772;2022-12-18T02:54:51;-4.60;99.90
5508;DHT22;2776;51.046;6.772;2022-12-18T02:57:24;-4.60;99.90
5508;DHT22;2776;51.046;6.772;2022-12-18T02:59:58;-4.60;99.90
5508;DHT22;2776;51.046;6.772;2022-12-18T03:02:33;-4.60;99.90
5508;DHT22;2776;51.046;6.772;2022-12-18T03:05:05;-4.60;99.90
5508;DHT22;2776;51.046;6.772;2022-12-18T03:07:37;-4.60;99.90
5508;DHT22;2776;51.046;6.772;2022-12-18T03:10:07;-4.60;99.90
5508;DHT22;2776;51.046;6.772;2022-12-18T03:12:41;-4.60;99.90
5508;DHT22;2776;51.046;6.772;2022-12-18T03:15:11;-4.60;99.90
5508;DHT22;2776;51.046;6.772;2022-12-18T03:17:41;-4.60;99.90
5508;DHT22;2776;51.046;6.772;2022-12-18T03:20:12;-4.70;99.90
5508;DHT22;2776;51.046;6.772;2022-12-18T03:22:43;-4.70;99.90
5508;DHT22;2776;51.046;6.772;2022-12-18T03:25:13;-4.60;99.90
5508;DHT22;2776;51.046;6.772;2022-12-18T03:27:44;-4.60;99.90
5508;DHT22;2776;51.046;6.772;2022-12-18T03:30:14;-4.60;99.90
5508;DHT22;2776;51.046;6.772;2022-12-18T03:32:44;-4.60;99.90
5508;DHT22;2776;51.046;6.772;2022-12-18T03:35:18;-4.60;99.90
5508;DHT22;2776;51.046;6.772;2022-12-18T03:37:47;-4.60;99.90
5508;DHT22;2776;51.046;6.772;2022-12-18T03:40:14;-4.60;99.90
5508;DHT22;2776;51.046;6.772;2022-12-18T03:42:46;-4.60;99.90
5508;DHT22;2776;51.046;6.772;2022-12-18T03:45:22;-4.60;99.90
5508;DHT22;2776;51.046;6.772;2022-12-18T03:47:58;-4.70;99.90
5508;DHT22;2776;51.046;6.772;2022-12-18T03:50:34;-4.70;99.90
5508;DHT22;2776;51.046;6.772;2022-12-18T03:53:09;-4.70;99.90
5508;DHT22;2776;51.046;6.772;2022-12-18T03:55:40;-4.70;99.90
5508;DHT22;2776;51.046;6.772;2022-12-18T03:58:10;-4.70;99.90
5508;DHT22;2776;51.046;6.772;2022-12-18T04:00:39;-4.70;99.90
5508;DHT22;2776;51.046;6.772;2022-12-18T04:03:07;-4.70;99.90
5508;DHT22;2776;51.046;6.772;2022-12-18T04:05:36;-4.70;99.90
5508;DHT22;2776;51.046;6.772;2022-12-18T04:08:04;-4.70;99.90
5508;DHT22;2776;51.046;6.772;2022-12-18T04:10:31;-4.70;99.90
5508;DHT22;2776;51.046;6.772;2022-12-18T04:13:05;-4.70;99.90
5508;DHT22;2776;51.046;6.772;2022-12-18T04:15:34;-4.70;99.90
5508;DHT22;2776;51.046;6.772;2022-12-18T04:18:02;-4.70;99.90
5508;DHT22;2776;51.046;6.772;2022-12-18T04:20:28;-4.70;99.90
5508;DHT22;2776;51.046;6.772;2022-12-18T04:22:55;-4.70;99.90
5508;DHT22;2776;51.046;6.772;2022-12-18T04:25:22;-4.70;99.90
5508;DHT22;2776;51.046;6.772;2022-12-18T04:27:49;-4.80;99.90
5508;DHT22;2776;51.046;6.772;2022-12-18T04:30:15;-4.80;99.90
5508;DHT22;2776;51.046;6.772;2022-12-18T04:32:43;-4.80;99.90
5508;DHT22;2776;51.046;6.772;2022-12-18T04:35:10;-4.80;99.90
5508;DHT22;2776;51.046;6.772;2022-12-18T04:37:37;-4.80;99.90
5508;DHT22;2776;51.046;6.772;2022-12-18T04:40:05;-4.80;99.90
5508;DHT22;2776;51.046;6.772;2022-12-18T04:42:32;-4.80;99.90
5508;DHT22;2776;51.046;6.772;2022-12-18T04:44:58;-4.80;99.90
5508;DHT22;2776;51.046;6.772;2022-12-18T04:47:25;-4.80;99.90
5508;DHT22;2776;51.046;6.772;2022-12-18T04:49:53;-4.80;99.90
5508;DHT22;2776;51.046;6.772;2022-12-18T04:52:20;-4.70;99.90
5508;DHT22;2776;51.046;6.772;2022-12-18T04:54:47;-4.70;99.90
5508;DHT22;2776;51.046;6.772;2022-12-18T04:57:13;-4.70;99.90
5508;DHT22;2776;51.046;6.772;2022-12-18T04:59:40;-4.70;99.90
5508;DHT22;2776;51.046;6.772;2022-12-18T05:02:07;-4.60;99.90
5508;DHT22;2776;51.046;6.772;2022-12-18T05:04:34;-4.60;99.90
5508;DHT22;2776;51.046;6.772;2022-12-18T05:07:02;-4.50;99.90
5508;DHT22;2776;51.046;6.772;2022-12-18T05:09:29;-4.50;99.90
5508;DHT22;2776;51.046;6.772;2022-12-18T05:11:55;-4.40;99.90
5508;DHT22;2776;51.046;6.772;2022-12-18T05:14:22;-4.40;99.90
5508;DHT22;2776;51.046;6.772;2022-12-18T05:16:49;-4.40;99.90
5508;DHT22;2776;51.046;6.772;2022-12-18T05:19:16;-4.40;99.90
5508;DHT22;2776;51.046;6.772;2022-12-18T05:21:43;-4.40;99.90
5508;DHT22;2776;51.046;6.772;2022-12-18T05:24:11;-4.40;99.90
5508;DHT22;2776;51.046;6.772;2022-12-18T05:26:38;-4.40;99.90
5508;DHT22;2776;51.046;6.772;2022-12-18T05:29:05;-4.40;99.90
5508;DHT22;2776;51.046;6.772;2022-12-18T05:31:31;-4.30;99.90
5508;DHT22;2776;51.046;6.772;2022-12-18T05:33:58;-4.30;99.90
5508;DHT22;2776;51.046;6.772;2022-12-18T05:36:25;-4.30;99.90
5508;DHT22;2776;51.046;6.772;2022-12-18T05:38:51;-4.30;99.90
5508;DHT22;2776;51.046;6.772;2022-12-18T05:41:19;-4.20;99.90
5508;DHT22;2776;51.046;6.772;2022-12-18T05:43:46;-4.30;99.90
5508;DHT22;2776;51.046;6.772;2022-12-18T05:46:15;-4.30;99.90
5508;DHT22;2776;51.046;6.772;2022-12-18T05:48:43;-4.30;99.90
5508;DHT22;2776;51.046;6.772;2022-12-18T05:51:12;-4.30;99.90
5508;DHT22;2776;51.046;6.772;2022-12-18T05:53:40;-4.30;99.90
5508;DHT22;2776;51.046;6.772;2022-12-18T05:56:08;-4.30;99.90
5508;DHT22;2776;51.046;6.772;2022-12-18T05:58:36;-4.30;99.90
5508;DHT22;2776;51.046;6.772;2022-12-18T06:01:08;-4.30;99.90
5508;DHT22;2776;51.046;6.772;2022-12-18T06:03:35;-4.30;99.90
5508;DHT22;2776;51.046;6.772;2022-12-18T06:06:03;-4.30;99.90
5508;DHT22;2776;51.046;6.772;2022-12-18T06:08:29;-4.30;99.90
5508;DHT22;2776;51.046;6.772;2022-12-18T06:10:56;-4.40;99.90
5508;DHT22;2776;51.046;6.772;2022-12-18T06:13:23;-4.40;99.90
5508;DHT22;2776;51.046;6.772;2022-12-18T06:15:51;-4.30;99.90
5508;DHT22;2776;51.046;6.772;2022-12-18T06:18:18;-4.40;99.90
5508;DHT22;2776;51.046;6.772;2022-12-18T06:20:44;-4.40;99.90
5508;DHT22;2776;51.046;6.772;2022-12-18T06:23:11;-4.40;99.90
5508;DHT22;2776;51.046;6.772;2022-12-18T06:25:39;-4.40;99.90
5508;DHT22;2776;51.046;6.772;2022-12-18T06:28:05;-4.40;99.90
5508;DHT22;2776;51.046;6.772;2022-12-18T06:30:32;-4.40;99.90
5508;DHT22;2776;51.046;6.772;2022-12-18T06:33:00;-4.30;99.90
5508;DHT22;2776;51.046;6.772;2022-12-18T06:35:27;-4.40;99.90
5508;DHT22;2776;51.046;6.772;2022-12-18T06:37:54;-4.30;99.90
5508;DHT22;2776;51.046;6.772;2022-12-18T06:40:20;-4.30;99.90
5508;DHT22;2776;51.046;6.772;2022-12-18T06:42:47;-4.30;99.90
5508;DHT22;2776;51.046;6.772;2022-12-18T06:45:14;-4.30;99.90
5508;DHT22;2776;51.046;6.772;2022-12-18T06:47:42;-4.20;99.90
5508;DHT22;2776;51.046;6.772;2022-12-18T06:50:10;-4.30;99.90
5508;DHT22;2776;51.046;6.772;2022-12-18T06:52:37;-4.30;99.90
5508;DHT22;2776;51.046;6.772;2022-12-18T06:55:06;-4.30;99.90
5508;DHT22;2776;51.046;6.772;2022-12-18T06:57:36;-4.30;99.90
5508;DHT22;2776;51.046;6.772;2022-12-18T07:00:07;-4.30;99.90
5508;DHT22;2776;51.046;6.772;2022-12-18T07:02:34;-4.30;99.90
5508;DHT22;2776;51.046;6.772;2022-12-18T07:05:01;-4.30;99.90
5508;DHT22;2776;51.046;6.772;2022-12-18T07:07:29;-4.30;99.90
5508;DHT22;2776;51.046;6.772;2022-12-18T07:09:56;-4.30;99.90
5508;DHT22;2776;51.046;6.772;2022-12-18T07:12:22;-4.30;99.90
5508;DHT22;2776;51.046;6.772;2022-12-18T07:14:49;-4.30;99.90
5508;DHT22;2776;51.046;6.772;2022-12-18T07:17:16;-4.30;99.90
5508;DHT22;2776;51.046;6.772;2022-12-18T07:19:43;-4.20;99.90
5508;DHT22;2776;51.046;6.772;2022-12-18T07:22:09;-4.20;99.90
5508;DHT22;2776;51.046;6.772;2022-12-18T07:24:37;-4.20;99.90
5508;DHT22;2776;51.046;6.772;2022-12-18T07:27:04;-4.20;99.90
5508;DHT22;2776;51.046;6.772;2022-12-18T07:29:31;-4.20;99.90
5508;DHT22;2776;51.046;6.772;2022-12-18T07:31:57;-4.10;99.90
5508;DHT22;2776;51.046;6.772;2022-12-18T07:34:24;-4.10;99.90
5508;DHT22;2776;51.046;6.772;2022-12-18T07:36:51;-4.10;99.90
5508;DHT22;2776;51.046;6.772;2022-12-18T07:39:18;-4.10;99.90
5508;DHT22;2776;51.046;6.772;2022-12-18T07:41:46;-4.10;99.90
5508;DHT22;2776;51.046;6.772;2022-12-18T07:44:32;-4.10;99.90
5508;DHT22;2776;51.046;6.772;2022-12-18T07:46:59;-4.00;99.90
5508;DHT22;2776;51.046;6.772;2022-12-18T07:49:26;-4.00;99.90
5508;DHT22;2776;51.046;6.772;2022-12-18T07:51:54;-4.00;99.90
5508;DHT22;2776;51.046;6.772;2022-12-18T07:54:21;-3.90;99.90
5508;DHT22;2776;51.046;6.772;2022-12-18T07:56:49;-3.80;99.90
5508;DHT22;2776;51.046;6.772;2022-12-18T07:59:17;-3.80;99.90
5508;DHT22;2776;51.046;6.772;2022-12-18T08:01:43;-3.60;99.90
5508;DHT22;2776;51.046;6.772;2022-12-18T08:04:10;-3.60;99.90
5508;DHT22;2776;51.046;6.772;2022-12-18T08:06:37;-3.60;99.90
5508;DHT22;2776;51.046;6.772;2022-12-18T08:09:04;-3.60;99.90
5508;DHT22;2776;51.046;6.772;2022-12-18T08:11:31;-3.60;99.90
5508;DHT22;2776;51.046;6.772;2022-12-18T08:13:59;-3.60;99.90
5508;DHT22;2776;51.046;6.772;2022-12-18T08:16:26;-3.40;99.90
5508;DHT22;2776;51.046;6.772;2022-12-18T08:18:54;-3.40;99.90
5508;DHT22;2776;51.046;6.772;2022-12-18T08:21:22;-3.30;99.90
5508;DHT22;2776;51.046;6.772;2022-12-18T08:23:49;-3.30;99.90
5508;DHT22;2776;51.046;6.772;2022-12-18T08:26:17;-3.30;99.90
5508;DHT22;2776;51.046;6.772;2022-12-18T08:28:44;-3.20;99.90
5508;DHT22;2776;51.046;6.772;2022-12-18T08:31:12;-3.20;99.90
5508;DHT22;2776;51.046;6.772;2022-12-18T08:33:39;-3.10;99.90
5508;DHT22;2776;51.046;6.772;2022-12-18T08:36:07;-3.00;99.90
5508;DHT22;2776;51.046;6.772;2022-12-18T08:38:34;-3.00;99.90
5508;DHT22;2776;51.046;6.772;2022-12-18T08:41:03;-2.90;99.90
5508;DHT22;2776;51.046;6.772;2022-12-18T08:43:30;-2.70;99.90
5508;DHT22;2776;51.046;6.772;2022-12-18T08:46:16;-2.60;99.90
5508;DHT22;2776;51.046;6.772;2022-12-18T08:48:43;-2.40;99.90
5508;DHT22;2776;51.046;6.772;2022-12-18T08:51:10;-2.20;99.90
5508;DHT22;2776;51.046;6.772;2022-12-18T08:53:37;-2.20;99.90
5508;DHT22;2776;51.046;6.772;2022-12-18T08:56:04;-2.00;99.90
5508;DHT22;2776;51.046;6.772;2022-12-18T08:58:31;-1.90;99.90
5508;DHT22;2776;51.046;6.772;2022-12-18T09:01:00;-1.80;99.90
5508;DHT22;2776;51.046;6.772;2022-12-18T09:03:28;-1.70;99.90
5508;DHT22;2776;51.046;6.772;2022-12-18T09:05:55;-1.70;99.90
5508;DHT22;2776;51.046;6.772;2022-12-18T09:08:22;-1.70;99.90
5508;DHT22;2776;51.046;6.772;2022-12-18T09:10:50;-1.60;99.90
5508;DHT22;2776;51.046;6.772;2022-12-18T09:13:17;-1.70;99.90
5508;DHT22;2776;51.046;6.772;2022-12-18T09:15:45;-1.90;99.90
5508;DHT22;2776;51.046;6.772;2022-12-18T09:18:13;-1.90;99.90
5508;DHT22;2776;51.046;6.772;2022-12-18T09:20:42;-2.00;99.90
5508;DHT22;2776;51.046;6.772;2022-12-18T09:23:09;-2.00;99.90
5508;DHT22;2776;51.046;6.772;2022-12-18T09:25:37;-1.90;99.90
5508;DHT22;2776;51.046;6.772;2022-12-18T09:28:09;-1.90;99.90
5508;DHT22;2776;51.046;6.772;2022-12-18T09:30:37;-1.80;99.90
5508;DHT22;2776;51.046;6.772;2022-12-18T09:33:04;-1.70;99.90
5508;DHT22;2776;51.046;6.772;2022-12-18T09:35:31;-1.60;99.90
5508;DHT22;2776;51.046;6.772;2022-12-18T09:37:59;-1.50;99.90
5508;DHT22;2776;51.046;6.772;2022-12-18T09:40:30;-1.30;99.90
5508;DHT22;2776;51.046;6.772;2022-12-18T09:43:01;-1.40;99.90
5508;DHT22;2776;51.046;6.772;2022-12-18T09:45:31;-1.40;99.90
5508;DHT22;2776;51.046;6.772;2022-12-18T09:48:06;-1.30;99.90
5508;DHT22;2776;51.046;6.772;2022-12-18T09:50:38;-1.20;99.90
5508;DHT22;2776;51.046;6.772;2022-12-18T09:53:13;-1.20;99.90
5508;DHT22;2776;51.046;6.772;2022-12-18T09:55:44;-1.20;99.90
5508;DHT22;2776;51.046;6.772;2022-12-18T09:58:16;-1.20;99.90
5508;DHT22;2776;51.046;6.772;2022-12-18T10:00:45;-1.20;99.90
5508;DHT22;2776;51.046;6.772;2022-12-18T10:03:13;-1.10;99.90
5508;DHT22;2776;51.046;6.772;2022-12-18T10:05:50;-1.20;99.90
5508;DHT22;2776;51.046;6.772;2022-12-18T10:08:24;-1.20;99.90
5508;DHT22;2776;51.046;6.772;2022-12-18T10:10:53;-1.10;99.90
5508;DHT22;2776;51.046;6.772;2022-12-18T10:13:31;-1.10;99.90
5508;DHT22;2776;51.046;6.772;2022-12-18T10:16:08;-1.00;99.90
5508;DHT22;2776;51.046;6.772;2022-12-18T10:18:51;-1.10;99.90
5508;DHT22;2776;51.046;6.772;2022-12-18T10:21:28;-1.10;99.90
5508;DHT22;2776;51.046;6.772;2022-12-18T10:24:02;-1.10;99.90
5508;DHT22;2776;51.046;6.772;2022-12-18T10:26:31;-1.10;99.90
5508;DHT22;2776;51.046;6.772;2022-12-18T10:28:59;-1.10;99.90
5508;DHT22;2776;51.046;6.772;2022-12-18T10:31:26;-1.00;99.90
5508;DHT22;2776;51.046;6.772;2022-12-18T10:33:53;-0.90;99.90
5508;DHT22;2776;51.046;6.772;2022-12-18T10:36:20;-0.90;99.90
5508;DHT22;2776;51.046;6.772;2022-12-18T10:38:47;-0.80;99.90
5508;DHT22;2776;51.046;6.772;2022-12-18T10:41:26;-0.80;99.90
5508;DHT22;2776;51.046;6.772;2022-12-18T10:44:15;-0.80;99.90
5508;DHT22;2776;51.046;6.772;2022-12-18T10:46:44;-0.80;99.90
5508;DHT22;2776;51.046;6.772;2022-12-18T10:49:21;-0.70;99.90
5508;DHT22;2776;51.046;6.772;2022-12-18T10:51:49;-0.70;99.90
5508;DHT22;2776;51.046;6.772;2022-12-18T10:54:18;-0.80;99.90
5508;DHT22;2776;51.046;6.772;2022-12-18T10:56:47;-0.80;99.90
5508;DHT22;2776;51.046;6.772;2022-12-18T10:59:15;-0.60;99.90
5508;DHT22;2776;51.046;6.772;2022-12-18T11:01:48;-0.70;99.90
5508;DHT22;2776;51.046;6.772;2022-12-18T11:04:21;-0.60;99.90
5508;DHT22;2776;51.046;6.772;2022-12-18T11:06:59;-0.60;99.90
5508;DHT22;2776;51.046;6.772;2022-12-18T11:09:27;-0.60;99.90
5508;DHT22;2776;51.046;6.772;2022-12-18T11:11:57;-0.50;99.90
5508;DHT22;2776;51.046;6.772;2022-12-18T11:14:26;-0.50;99.90
5508;DHT22;2776;51.046;6.772;2022-12-18T11:16:54;-0.50;99.90
5508;DHT22;2776;51.046;6.772;2022-12-18T11:19:32;-0.50;99.90
5508;DHT22;2776;51.046;6.772;2022-12-18T11:22:01;-0.50;99.90
5508;DHT22;2776;51.046;6.772;2022-12-18T11:24:30;-0.40;99.90
5508;DHT22;2776;51.046;6.772;2022-12-18T11:27:01;-0.40;99.90
5508;DHT22;2776;51.046;6.772;2022-12-18T11:29:32;-0.40;99.90
5508;DHT22;2776;51.046;6.772;2022-12-18T11:32:24;-0.40;99.90
5508;DHT22;2776;51.046;6.772;2022-12-18T11:34:57;-0.40;99.90
5508;DHT22;2776;51.046;6.772;2022-12-18T11:37:24;-0.40;99.90
5508;DHT22;2776;51.046;6.772;2022-12-18T11:39:54;-0.30;99.90
5508;DHT22;2776;51.046;6.772;2022-12-18T11:42:27;-0.30;99.90
5508;DHT22;2776;51.046;6.772;2022-12-18T11:44:59;-0.30;99.90
5508;DHT22;2776;51.046;6.772;2022-12-18T11:47:31;-0.30;99.90
5508;DHT22;2776;51.046;6.772;2022-12-18T11:50:03;-0.30;99.90
5508;DHT22;2776;51.046;6.772;2022-12-18T11:52:35;-0.30;99.90
5508;DHT22;2776;51.046;6.772;2022-12-18T11:55:10;-0.30;99.90
5508;DHT22;2776;51.046;6.772;2022-12-18T11:57:45;-0.30;99.90
5508;DHT22;2776;51.046;6.772;2022-12-18T12:00:20;-0.40;99.90
5508;DHT22;2776;51.046;6.772;2022-12-18T12:03:17;-0.40;99.90
5508;DHT22;2776;51.046;6.772;2022-12-18T12:05:56;-0.30;99.90
5508;DHT22;2776;51.046;6.772;2022-12-18T12:08:32;-0.40;99.90
5508;DHT22;2776;51.046;6.772;2022-12-18T12:11:05;-0.40;99.90
5508;DHT22;2776;51.046;6.772;2022-12-18T12:13:45;-0.30;99.90
5508;DHT22;2776;51.046;6.772;2022-12-18T12:16:17;-0.40;99.90
5508;DHT22;2776;51.046;6.772;2022-12-18T12:19:12;-0.40;99.90
5508;DHT22;2776;51.046;6.772;2022-12-18T12:21:46;-0.40;99.90
5508;DHT22;2776;51.046;6.772;2022-12-18T12:24:26;-0.30;99.90
5508;DHT22;2776;51.046;6.772;2022-12-18T12:27:05;-0.30;99.90
5508;DHT22;2776;51.046;6.772;2022-12-18T12:29:42;-0.30;99.90
5508;DHT22;2776;51.046;6.772;2022-12-18T12:32:22;-0.30;99.90
5508;DHT22;2776;51.046;6.772;2022-12-18T12:35:02;-0.50;99.90
5508;DHT22;2776;51.046;6.772;2022-12-18T12:37:40;-0.40;99.90
5508;DHT22;2776;51.046;6.772;2022-12-18T12:40:13;-0.40;99.90
5508;DHT22;2776;51.046;6.772;2022-12-18T12:42:44;-0.40;99.90
5508;DHT22;2776;51.046;6.772;2022-12-18T12:45:37;-0.50;99.90
5508;DHT22;2776;51.046;6.772;2022-12-18T12:48:16;-0.50;99.90
5508;DHT22;2776;51.046;6.772;2022-12-18T12:50:45;-0.50;99.90
5508;DHT22;2776;51.046;6.772;2022-12-18T12:53:25;-0.50;99.90
5508;DHT22;2776;51.046;6.772;2022-12-18T12:55:53;-0.50;99.90
5508;DHT22;2776;51.046;6.772;2022-12-18T12:58:26;-0.50;99.90
5508;DHT22;2776;51.046;6.772;2022-12-18T13:01:04;-0.50;99.90
5508;DHT22;2776;51.046;6.772;2022-12-18T13:03:42;-0.40;99.90
5508;DHT22;2776;51.046;6.772;2022-12-18T13:06:16;-0.50;99.90
5508;DHT22;2776;51.046;6.772;2022-12-18T13:08:54;-0.50;99.90
5508;DHT22;2776;51.046;6.772;2022-12-18T13:11:46;-0.50;99.90
5508;DHT22;2776;51.046;6.772;2022-12-18T13:14:32;-0.40;99.90
5508;DHT22;2776;51.046;6.772;2022-12-18T13:17:27;-0.40;99.90
5508;DHT22;2776;51.046;6.772;2022-12-18T13:20:04;-0.40;99.90
5508;DHT22;2776;51.046;6.772;2022-12-18T13:22:35;-0.40;99.90
5508;DHT22;2776;51.046;6.772;2022-12-18T13:25:03;-0.40;99.90
5508;DHT22;2776;51.046;6.772;2022-12-18T13:27:55;-0.40;99.90
5508;DHT22;2776;51.046;6.772;2022-12-18T13:30:45;-0.40;99.90
5508;DHT22;2776;51.046;6.772;2022-12-18T13:33:39;-0.50;99.90
5508;DHT22;2776;51.046;6.772;2022-12-18T13:36:15;-0.40;99.90
5508;DHT22;2776;51.046;6.772;2022-12-18T13:38:43;-0.50;99.90
5508;DHT22;2776;51.046;6.772;2022-12-18T13:41:25;-0.50;99.90
5508;DHT22;2776;51.046;6.772;2022-12-18T13:43:53;-0.50;99.90
5508;DHT22;2776;51.046;6.772;2022-12-18T13:46:25;-0.50;99.90
5508;DHT22;2776;51.046;6.772;2022-12-18T13:49:01;-0.50;99.90
5508;DHT22;2776;51.046;6.772;2022-12-18T13:51:32;-0.50;99.90
5508;DHT22;2776;51.046;6.772;2022-12-18T13:54:06;-0.60;99.90
5508;DHT22;2776;51.046;6.772;2022-12-18T13:56:44;-0.60;99.90
5508;DHT22;2776;51.046;6.772;2022-12-18T13:59:17;-0.60;99.90
5508;DHT22;2776;51.046;6.772;2022-12-18T14:01:50;-0.60;99.90
5508;DHT22;2776;51.046;6.772;2022-12-18T14:04:22;-0.50;99.90
5508;DHT22;2776;51.046;6.772;2022-12-18T14:06:51;-0.60;99.90
5508;DHT22;2776;51.046;6.772;2022-12-18T14:09:23;-0.60;99.90
5508;DHT22;2776;51.046;6.772;2022-12-18T14:11:51;-0.60;99.90
5508;DHT22;2776;51.046;6.772;2022-12-18T14:14:19;-0.60;99.90
5508;DHT22;2776;51.046;6.772;2022-12-18T14:16:46;-0.60;99.90
5508;DHT22;2776;51.046;6.772;2022-12-18T14:19:16;-0.60;99.90
5508;DHT22;2776;51.046;6.772;2022-12-18T14:21:47;-0.60;99.90
5508;DHT22;2776;51.046;6.772;2022-12-18T14:24:17;-0.60;99.90
5508;DHT22;2776;51.046;6.772;2022-12-18T14:26:45;-0.50;99.90
5508;DHT22;2776;51.046;6.772;2022-12-18T14:29:21;-0.40;99.90
5508;DHT22;2776;51.046;6.772;2022-12-18T14:32:03;-0.50;99.90
5508;DHT22;2776;51.046;6.772;2022-12-18T14:34:30;-0.50;99.90
5508;DHT22;2776;51.046;6.772;2022-12-18T14:36:59;-0.50;99.90
5508;DHT22;2776;51.046;6.772;2022-12-18T14:39:25;-0.50;99.90
5508;DHT22;2776;51.046;6.772;2022-12-18T14:41:53;-0.50;99.90
5508;DHT22;2776;51.046;6.772;2022-12-18T14:44:20;-0.50;99.90
5508;DHT22;2776;51.046;6.772;2022-12-18T14:46:48;-0.50;99.90
5508;DHT22;2776;51.046;6.772;2022-12-18T14:49:23;-0.40;99.90
5508;DHT22;2776;51.046;6.772;2022-12-18T14:51:52;-0.50;99.90
5508;DHT22;2776;51.046;6.772;2022-12-18T14:54:24;-0.50;99.90
5508;DHT22;2776;51.046;6.772;2022-12-18T14:56:58;-0.60;99.90
5508;DHT22;2776;51.046;6.772;2022-12-18T14:59:27;-0.60;99.90
5508;DHT22;2776;51.046;6.772;2022-12-18T15:01:59;-0.70;99.90
5508;DHT22;2776;51.046;6.772;2022-12-18T15:04:30;-0.70;99.90
5508;DHT22;2776;51.046;6.772;2022-12-18T15:07:09;-0.70;99.90
5508;DHT22;2776;51.046;6.772;2022-12-18T15:09:41;-0.70;99.90
5508;DHT22;2776;51.046;6.772;2022-12-18T15:12:24;-0.70;99.90
5508;DHT22;2776;51.046;6.772;2022-12-18T15:14:52;-0.80;99.90
5508;DHT22;2776;51.046;6.772;2022-12-18T15:17:20;-0.80;99.90
5508;DHT22;2776;51.046;6.772;2022-12-18T15:19:48;-0.80;99.90
5508;DHT22;2776;51.046;6.772;2022-12-18T15:22:19;-0.90;99.90
5508;DHT22;2776;51.046;6.772;2022-12-18T15:24:49;-0.90;99.90
5508;DHT22;2776;51.046;6.772;2022-12-18T15:27:28;-0.90;99.90
5508;DHT22;2776;51.046;6.772;2022-12-18T15:30:18;-0.90;99.90
5508;DHT22;2776;51.046;6.772;2022-12-18T15:32:46;-0.90;99.90
5508;DHT22;2776;51.046;6.772;2022-12-18T15:35:16;-0.90;99.90
5508;DHT22;2776;51.046;6.772;2022-12-18T15:37:44;-1.00;99.90
5508;DHT22;2776;51.046;6.772;2022-12-18T15:40:17;-1.10;99.90
5508;DHT22;2776;51.046;6.772;2022-12-18T15:42:43;-1.10;99.90
5508;DHT22;2776;51.046;6.772;2022-12-18T15:45:28;-1.10;99.90
5508;DHT22;2776;51.046;6.772;2022-12-18T15:47:55;-1.10;99.90
5508;DHT22;2776;51.046;6.772;2022-12-18T15:50:22;-1.20;99.90
5508;DHT22;2776;51.046;6.772;2022-12-18T15:52:52;-1.10;99.90
5508;DHT22;2776;51.046;6.772;2022-12-18T15:55:22;-1.10;99.90
5508;DHT22;2776;51.046;6.772;2022-12-18T15:58:08;-1.10;99.90
5508;DHT22;2776;51.046;6.772;2022-12-18T16:00:38;-1.00;99.90
5508;DHT22;2776;51.046;6.772;2022-12-18T16:03:05;-1.10;99.90
5508;DHT22;2776;51.046;6.772;2022-12-18T16:05:32;-1.00;99.90
5508;DHT22;2776;51.046;6.772;2022-12-18T16:07:59;-1.10;99.90
5508;DHT22;2776;51.046;6.772;2022-12-18T16:10:27;-1.10;99.90
5508;DHT22;2776;51.046;6.772;2022-12-18T16:12:54;-1.20;99.90
5508;DHT22;2776;51.046;6.772;2022-12-18T16:15:21;-1.10;99.90
5508;DHT22;2776;51.046;6.772;2022-12-18T16:17:48;-1.10;99.90
5508;DHT22;2776;51.046;6.772;2022-12-18T16:20:17;-1.10;99.90
5508;DHT22;2776;51.046;6.772;2022-12-18T16:22:45;-1.10;99.90